This is the latest recevied weather packets stored in our database for station/object vk4zu-13. If no packets are shown the sender has not sent any weather packets the latest 10 day(s).
| Time | Temp. | Humidity | Pressure | Rain* | Wind** | Luminosity | Snow |
|---|---|---|---|---|---|---|---|
| 1777431107 | 25° C | 63% | 1024 hPa | 0 mm | - | 745 W/m² | - |
| 1777431033 | 25° C | 62% | 1024 hPa | 0 mm | - | 745 W/m² | - |
| 1777430983 | 25° C | 61% | 1024.1 hPa | 0 mm | - | 752 W/m² | - |
| 1777430960 | 25° C | 63% | 1024 hPa | 0 mm | - | 798 W/m² | - |
| 1777430825 | 25° C | 62% | 1024.2 hPa | 0 mm | - | 798 W/m² | - |
| 1777430758 | 25° C | 65% | 1024 hPa | 0 mm | - | 796 W/m² | - |
| 1777430693 | 24.44° C | 65% | 1024 hPa | 0 mm | - | 796 W/m² | - |
| 1777430635 | 24.44° C | 65% | 1024 hPa | 0 mm | - | 211 W/m² | - |
| 1777430564 | 24.44° C | 65% | 1024.1 hPa | 0 mm | - | 211 W/m² | - |
| 1777430500 | 24.44° C | 63% | 1024.1 hPa | 0 mm | - | 211 W/m² | - |
| 1777430439 | 24.44° C | 63% | 1024.2 hPa | 0 mm | - | 176 W/m² | - |
| 1777430380 | 25° C | 63% | 1024.1 hPa | 0 mm | - | 163 W/m² | - |
| 1777430309 | 25° C | 62% | 1024.2 hPa | 0 mm | - | 156 W/m² | - |
| 1777430239 | 25.56° C | 61% | 1024.2 hPa | 0 mm | - | 167 W/m² | - |
| 1777430175 | 25.56° C | 64% | 1024.2 hPa | 0 mm | - | 167 W/m² | - |
| 1777430113 | 25.56° C | 61% | 1024.2 hPa | 0 mm | - | 185 W/m² | - |
| 1777430054 | 25.56° C | 61% | 1024.1 hPa | 0 mm | - | 186 W/m² | - |
| 1777429990 | 25.56° C | 62% | 1024.1 hPa | 0 mm | - | 244 W/m² | - |
| 1777429893 | 26.11° C | 62% | 1024.1 hPa | 0 mm | - | 244 W/m² | - |
| 1777429833 | 26.11° C | 63% | 1024 hPa | 0 mm | - | 244 W/m² | - |
| 1777429774 | 26.11° C | 60% | 1024.1 hPa | 0 mm | - | 874 W/m² | - |
| 1777429710 | 26.11° C | 61% | 1024.1 hPa | 0 mm | - | 874 W/m² | - |
| 1777429652 | 26.11° C | 63% | 1024.1 hPa | 0 mm | - | 874 W/m² | - |
| 1777429584 | 25.56° C | 65% | 1024.1 hPa | 0 mm | - | 853 W/m² | - |
| 1777429525 | 25° C | 65% | 1024.1 hPa | 0 mm | - | 833 W/m² | - |
* Rain latest hour (hover to see other rain measurements)
** Current wind speed in m/s (hover to see current wind gust speed)